sensor_id;sensor_type;location;lat;lon;timestamp;P1;durP1;ratioP1;P2;durP2;ratioP2
30729;SDS011;17476;48.458;7.928;2022-09-20T00:03:42;0.20;;;0.20;;
30729;SDS011;17476;48.458;7.928;2022-09-20T00:06:11;0.30;;;0.30;;
30729;SDS011;17476;48.458;7.928;2022-09-20T00:08:40;0.30;;;0.30;;
30729;SDS011;17476;48.458;7.928;2022-09-20T00:11:11;0.20;;;0.20;;
30729;SDS011;17476;48.458;7.928;2022-09-20T00:13:42;0.30;;;0.30;;
30729;SDS011;17476;48.458;7.928;2022-09-20T00:16:10;0.30;;;0.30;;
30729;SDS011;17476;48.458;7.928;2022-09-20T00:18:40;0.23;;;0.23;;
30729;SDS011;17476;48.458;7.928;2022-09-20T00:21:10;0.27;;;0.27;;
30729;SDS011;17476;48.458;7.928;2022-09-20T00:23:45;0.20;;;0.20;;
30729;SDS011;17476;48.458;7.928;2022-09-20T00:26:11;0.20;;;0.20;;
30729;SDS011;17476;48.458;7.928;2022-09-20T00:28:38;0.20;;;0.20;;
30729;SDS011;17476;48.458;7.928;2022-09-20T00:31:05;0.30;;;0.30;;
30729;SDS011;17476;48.458;7.928;2022-09-20T00:33:32;0.20;;;0.20;;
30729;SDS011;17476;48.458;7.928;2022-09-20T00:36:16;0.30;;;0.30;;
30729;SDS011;17476;48.458;7.928;2022-09-20T00:38:42;0.30;;;0.30;;
30729;SDS011;17476;48.458;7.928;2022-09-20T00:41:08;0.20;;;0.20;;
30729;SDS011;17476;48.458;7.928;2022-09-20T00:43:39;0.30;;;0.30;;
30729;SDS011;17476;48.458;7.928;2022-09-20T00:49:27;0.20;;;0.20;;
30729;SDS011;17476;48.458;7.928;2022-09-20T00:51:56;0.20;;;0.20;;
30729;SDS011;17476;48.458;7.928;2022-09-20T00:54:25;0.20;;;0.20;;
30729;SDS011;17476;48.458;7.928;2022-09-20T00:56:54;0.30;;;0.30;;
30729;SDS011;17476;48.458;7.928;2022-09-20T00:59:20;0.30;;;0.30;;
30729;SDS011;17476;48.458;7.928;2022-09-20T01:02:00;0.20;;;0.20;;
30729;SDS011;17476;48.458;7.928;2022-09-20T01:04:33;0.30;;;0.30;;
30729;SDS011;17476;48.458;7.928;2022-09-20T01:07:03;0.23;;;0.23;;
30729;SDS011;17476;48.458;7.928;2022-09-20T01:09:32;0.20;;;0.20;;
30729;SDS011;17476;48.458;7.928;2022-09-20T01:11:58;0.30;;;0.30;;
30729;SDS011;17476;48.458;7.928;2022-09-20T01:14:30;0.30;;;0.30;;
30729;SDS011;17476;48.458;7.928;2022-09-20T01:16:58;0.30;;;0.30;;
30729;SDS011;17476;48.458;7.928;2022-09-20T01:19:46;0.30;;;0.30;;
30729;SDS011;17476;48.458;7.928;2022-09-20T01:31:45;0.30;;;0.30;;
30729;SDS011;17476;48.458;7.928;2022-09-20T01:34:33;0.30;;;0.30;;
30729;SDS011;17476;48.458;7.928;2022-09-20T01:37:04;0.33;;;0.33;;
30729;SDS011;17476;48.458;7.928;2022-09-20T01:42:31;0.30;;;0.30;;
30729;SDS011;17476;48.458;7.928;2022-09-20T01:45:15;0.27;;;0.27;;
30729;SDS011;17476;48.458;7.928;2022-09-20T01:51:00;0.27;;;0.27;;
30729;SDS011;17476;48.458;7.928;2022-09-20T02:11:58;0.20;;;0.20;;
30729;SDS011;17476;48.458;7.928;2022-09-20T02:15:12;0.30;;;0.30;;
30729;SDS011;17476;48.458;7.928;2022-09-20T02:21:13;0.30;;;0.30;;
30729;SDS011;17476;48.458;7.928;2022-09-20T02:27:22;0.30;;;0.30;;
30729;SDS011;17476;48.458;7.928;2022-09-20T02:39:11;0.20;;;0.20;;
30729;SDS011;17476;48.458;7.928;2022-09-20T02:41:44;0.30;;;0.30;;
30729;SDS011;17476;48.458;7.928;2022-09-20T02:44:35;0.30;;;0.30;;
30729;SDS011;17476;48.458;7.928;2022-09-20T02:47:36;0.30;;;0.30;;
30729;SDS011;17476;48.458;7.928;2022-09-20T02:59:24;0.30;;;0.30;;
30729;SDS011;17476;48.458;7.928;2022-09-20T03:08:25;0.30;;;0.30;;
30729;SDS011;17476;48.458;7.928;2022-09-20T03:11:40;0.30;;;0.30;;
30729;SDS011;17476;48.458;7.928;2022-09-20T03:14:55;0.30;;;0.30;;
30729;SDS011;17476;48.458;7.928;2022-09-20T03:24:37;0.40;;;0.40;;
30729;SDS011;17476;48.458;7.928;2022-09-20T03:27:52;0.40;;;0.40;;
30729;SDS011;17476;48.458;7.928;2022-09-20T03:51:02;0.30;;;0.30;;
30729;SDS011;17476;48.458;7.928;2022-09-20T04:07:59;0.30;;;0.30;;
30729;SDS011;17476;48.458;7.928;2022-09-20T04:11:28;0.30;;;0.30;;
30729;SDS011;17476;48.458;7.928;2022-09-20T04:14:13;0.30;;;0.30;;
30729;SDS011;17476;48.458;7.928;2022-09-20T04:19:42;0.30;;;0.30;;
30729;SDS011;17476;48.458;7.928;2022-09-20T04:22:37;0.30;;;0.30;;
30729;SDS011;17476;48.458;7.928;2022-09-20T04:28:20;0.30;;;0.30;;
30729;SDS011;17476;48.458;7.928;2022-09-20T04:31:32;0.30;;;0.30;;
30729;SDS011;17476;48.458;7.928;2022-09-20T04:34:57;0.33;;;0.33;;
30729;SDS011;17476;48.458;7.928;2022-09-20T04:37:49;0.30;;;0.30;;
30729;SDS011;17476;48.458;7.928;2022-09-20T04:55:48;0.40;;;0.40;;
30729;SDS011;17476;48.458;7.928;2022-09-20T04:59:05;0.40;;;0.40;;
30729;SDS011;17476;48.458;7.928;2022-09-20T05:08:22;0.40;;;0.40;;
30729;SDS011;17476;48.458;7.928;2022-09-20T05:17:03;0.40;;;0.40;;
30729;SDS011;17476;48.458;7.928;2022-09-20T05:23:25;0.40;;;0.40;;
30729;SDS011;17476;48.458;7.928;2022-09-20T05:31:25;0.40;;;0.40;;
30729;SDS011;17476;48.458;7.928;2022-09-20T05:34:13;0.30;;;0.30;;
30729;SDS011;17476;48.458;7.928;2022-09-20T05:42:19;0.30;;;0.30;;
30729;SDS011;17476;48.458;7.928;2022-09-20T05:51:12;0.30;;;0.30;;
30729;SDS011;17476;48.458;7.928;2022-09-20T06:01:04;0.30;;;0.30;;
30729;SDS011;17476;48.458;7.928;2022-09-20T06:18:28;0.40;;;0.40;;
30729;SDS011;17476;48.458;7.928;2022-09-20T06:23:55;0.30;;;0.30;;
30729;SDS011;17476;48.458;7.928;2022-09-20T06:26:25;0.40;;;0.40;;
30729;SDS011;17476;48.458;7.928;2022-09-20T06:28:58;0.30;;;0.30;;
30729;SDS011;17476;48.458;7.928;2022-09-20T06:31:35;0.30;;;0.30;;
30729;SDS011;17476;48.458;7.928;2022-09-20T06:34:02;0.30;;;0.30;;
30729;SDS011;17476;48.458;7.928;2022-09-20T06:36:38;0.30;;;0.30;;
30729;SDS011;17476;48.458;7.928;2022-09-20T06:43:03;0.20;;;0.20;;
30729;SDS011;17476;48.458;7.928;2022-09-20T06:45:30;0.30;;;0.30;;
30729;SDS011;17476;48.458;7.928;2022-09-20T06:47:56;0.30;;;0.30;;
30729;SDS011;17476;48.458;7.928;2022-09-20T06:50:22;0.30;;;0.30;;
30729;SDS011;17476;48.458;7.928;2022-09-20T06:52:48;0.10;;;0.10;;
30729;SDS011;17476;48.458;7.928;2022-09-20T06:55:25;0.20;;;0.20;;
30729;SDS011;17476;48.458;7.928;2022-09-20T06:58:01;0.23;;;0.23;;
30729;SDS011;17476;48.458;7.928;2022-09-20T07:00:27;0.23;;;0.23;;
30729;SDS011;17476;48.458;7.928;2022-09-20T07:02:54;0.20;;;0.20;;
30729;SDS011;17476;48.458;7.928;2022-09-20T07:05:20;0.20;;;0.20;;
30729;SDS011;17476;48.458;7.928;2022-09-20T07:07:48;0.20;;;0.20;;
30729;SDS011;17476;48.458;7.928;2022-09-20T07:10:14;0.20;;;0.20;;
30729;SDS011;17476;48.458;7.928;2022-09-20T07:12:41;0.20;;;0.20;;
30729;SDS011;17476;48.458;7.928;2022-09-20T07:15:07;0.10;;;0.10;;
30729;SDS011;17476;48.458;7.928;2022-09-20T07:17:33;0.20;;;0.20;;
30729;SDS011;17476;48.458;7.928;2022-09-20T07:19:59;0.20;;;0.20;;
30729;SDS011;17476;48.458;7.928;2022-09-20T07:22:25;0.10;;;0.10;;
30729;SDS011;17476;48.458;7.928;2022-09-20T07:24:52;0.10;;;0.10;;
30729;SDS011;17476;48.458;7.928;2022-09-20T07:27:17;0.17;;;0.17;;
30729;SDS011;17476;48.458;7.928;2022-09-20T07:29:44;0.10;;;0.10;;
30729;SDS011;17476;48.458;7.928;2022-09-20T07:32:10;0.20;;;0.20;;
30729;SDS011;17476;48.458;7.928;2022-09-20T07:34:36;0.20;;;0.20;;
30729;SDS011;17476;48.458;7.928;2022-09-20T07:37:02;0.20;;;0.20;;
30729;SDS011;17476;48.458;7.928;2022-09-20T07:39:28;0.10;;;0.10;;
30729;SDS011;17476;48.458;7.928;2022-09-20T07:41:54;0.10;;;0.10;;
30729;SDS011;17476;48.458;7.928;2022-09-20T07:44:19;0.10;;;0.10;;
30729;SDS011;17476;48.458;7.928;2022-09-20T07:46:56;0.10;;;0.10;;
30729;SDS011;17476;48.458;7.928;2022-09-20T07:49:24;0.20;;;0.20;;
30729;SDS011;17476;48.458;7.928;2022-09-20T07:51:52;0.10;;;0.10;;
30729;SDS011;17476;48.458;7.928;2022-09-20T07:54:18;0.10;;;0.10;;
30729;SDS011;17476;48.458;7.928;2022-09-20T07:56:45;0.10;;;0.10;;
30729;SDS011;17476;48.458;7.928;2022-09-20T07:59:11;0.10;;;0.10;;
30729;SDS011;17476;48.458;7.928;2022-09-20T08:01:38;0.10;;;0.10;;
30729;SDS011;17476;48.458;7.928;2022-09-20T08:04:05;0.10;;;0.10;;
30729;SDS011;17476;48.458;7.928;2022-09-20T08:06:40;0.10;;;0.10;;
30729;SDS011;17476;48.458;7.928;2022-09-20T08:09:10;0.10;;;0.10;;
30729;SDS011;17476;48.458;7.928;2022-09-20T08:11:38;0.10;;;0.10;;
30729;SDS011;17476;48.458;7.928;2022-09-20T08:14:06;0.10;;;0.10;;
30729;SDS011;17476;48.458;7.928;2022-09-20T08:16:38;0.10;;;0.10;;
30729;SDS011;17476;48.458;7.928;2022-09-20T08:19:06;0.20;;;0.20;;
30729;SDS011;17476;48.458;7.928;2022-09-20T08:21:35;0.10;;;0.10;;
30729;SDS011;17476;48.458;7.928;2022-09-20T08:24:05;0.07;;;0.07;;
30729;SDS011;17476;48.458;7.928;2022-09-20T08:26:31;0.10;;;0.10;;
30729;SDS011;17476;48.458;7.928;2022-09-20T08:28:59;0.10;;;0.10;;
30729;SDS011;17476;48.458;7.928;2022-09-20T08:31:29;0.10;;;0.10;;
30729;SDS011;17476;48.458;7.928;2022-09-20T08:33:58;0.10;;;0.10;;
30729;SDS011;17476;48.458;7.928;2022-09-20T08:36:28;0.03;;;0.03;;
30729;SDS011;17476;48.458;7.928;2022-09-20T08:38:55;0.10;;;0.10;;
30729;SDS011;17476;48.458;7.928;2022-09-20T08:41:26;0.10;;;0.10;;
30729;SDS011;17476;48.458;7.928;2022-09-20T08:46:36;0.10;;;0.10;;
30729;SDS011;17476;48.458;7.928;2022-09-20T08:49:12;0.10;;;0.10;;
30729;SDS011;17476;48.458;7.928;2022-09-20T08:51:49;0.00;;;0.00;;
30729;SDS011;17476;48.458;7.928;2022-09-20T08:54:16;0.10;;;0.10;;
30729;SDS011;17476;48.458;7.928;2022-09-20T08:56:42;0.10;;;0.10;;
30729;SDS011;17476;48.458;7.928;2022-09-20T08:59:21;0.10;;;0.10;;
30729;SDS011;17476;48.458;7.928;2022-09-20T09:01:49;0.00;;;0.00;;
30729;SDS011;17476;48.458;7.928;2022-09-20T09:04:21;0.10;;;0.10;;
30729;SDS011;17476;48.458;7.928;2022-09-20T09:06:50;0.10;;;0.10;;
30729;SDS011;17476;48.458;7.928;2022-09-20T09:11:48;0.00;;;0.00;;
30729;SDS011;17476;48.458;7.928;2022-09-20T09:14:29;0.00;;;0.00;;
30729;SDS011;17476;48.458;7.928;2022-09-20T09:17:25;0.10;;;0.10;;
30729;SDS011;17476;48.458;7.928;2022-09-20T09:19:58;0.10;;;0.10;;
30729;SDS011;17476;48.458;7.928;2022-09-20T09:22:57;0.00;;;0.00;;
30729;SDS011;17476;48.458;7.928;2022-09-20T09:25:39;0.10;;;0.10;;
30729;SDS011;17476;48.458;7.928;2022-09-20T09:35:57;0.10;;;0.10;;
30729;SDS011;17476;48.458;7.928;2022-09-20T09:38:38;0.10;;;0.10;;
30729;SDS011;17476;48.458;7.928;2022-09-20T09:41:30;0.10;;;0.10;;
30729;SDS011;17476;48.458;7.928;2022-09-20T09:46:34;0.00;;;0.00;;
30729;SDS011;17476;48.458;7.928;2022-09-20T09:49:18;0.10;;;0.10;;
30729;SDS011;17476;48.458;7.928;2022-09-20T09:52:09;0.07;;;0.07;;
30729;SDS011;17476;48.458;7.928;2022-09-20T09:54:40;0.10;;;0.10;;
30729;SDS011;17476;48.458;7.928;2022-09-20T10:00:19;0.10;;;0.10;;
30729;SDS011;17476;48.458;7.928;2022-09-20T10:18:37;0.10;;;0.10;;
30729;SDS011;17476;48.458;7.928;2022-09-20T10:30:13;0.00;;;0.00;;
30729;SDS011;17476;48.458;7.928;2022-09-20T10:32:58;0.00;;;0.00;;
30729;SDS011;17476;48.458;7.928;2022-09-20T10:41:46;0.10;;;0.10;;
30729;SDS011;17476;48.458;7.928;2022-09-20T10:45:02;0.00;;;0.00;;
30729;SDS011;17476;48.458;7.928;2022-09-20T10:53:44;0.03;;;0.03;;
30729;SDS011;17476;48.458;7.928;2022-09-20T10:59:34;0.00;;;0.00;;
30729;SDS011;17476;48.458;7.928;2022-09-20T11:05:00;0.00;;;0.00;;
30729;SDS011;17476;48.458;7.928;2022-09-20T11:11:30;0.00;;;0.00;;
30729;SDS011;17476;48.458;7.928;2022-09-20T11:14:08;0.00;;;0.00;;
30729;SDS011;17476;48.458;7.928;2022-09-20T11:17:05;0.00;;;0.00;;
30729;SDS011;17476;48.458;7.928;2022-09-20T11:20:06;0.10;;;0.10;;
30729;SDS011;17476;48.458;7.928;2022-09-20T11:22:43;0.10;;;0.10;;
30729;SDS011;17476;48.458;7.928;2022-09-20T11:25:43;0.00;;;0.00;;
30729;SDS011;17476;48.458;7.928;2022-09-20T11:28:17;0.00;;;0.00;;
30729;SDS011;17476;48.458;7.928;2022-09-20T11:31:06;0.10;;;0.10;;
30729;SDS011;17476;48.458;7.928;2022-09-20T11:33:59;0.10;;;0.10;;
30729;SDS011;17476;48.458;7.928;2022-09-20T11:36:56;0.10;;;0.10;;
30729;SDS011;17476;48.458;7.928;2022-09-20T11:42:31;0.00;;;0.00;;
30729;SDS011;17476;48.458;7.928;2022-09-20T11:45:01;0.00;;;0.00;;
30729;SDS011;17476;48.458;7.928;2022-09-20T11:47:37;0.10;;;0.10;;
30729;SDS011;17476;48.458;7.928;2022-09-20T11:50:34;0.00;;;0.00;;
30729;SDS011;17476;48.458;7.928;2022-09-20T11:56:28;0.10;;;0.10;;
30729;SDS011;17476;48.458;7.928;2022-09-20T11:58:59;0.10;;;0.10;;
30729;SDS011;17476;48.458;7.928;2022-09-20T12:06:46;0.10;;;0.10;;
30729;SDS011;17476;48.458;7.928;2022-09-20T12:15:18;0.10;;;0.10;;
30729;SDS011;17476;48.458;7.928;2022-09-20T12:26:10;0.00;;;0.00;;
30729;SDS011;17476;48.458;7.928;2022-09-20T12:28:46;0.00;;;0.00;;
30729;SDS011;17476;48.458;7.928;2022-09-20T12:39:30;0.00;;;0.00;;
30729;SDS011;17476;48.458;7.928;2022-09-20T12:58:37;0.00;;;0.00;;
30729;SDS011;17476;48.458;7.928;2022-09-20T13:03:43;0.10;;;0.10;;
30729;SDS011;17476;48.458;7.928;2022-09-20T13:11:11;0.10;;;0.10;;
30729;SDS011;17476;48.458;7.928;2022-09-20T13:19:28;0.07;;;0.07;;
30729;SDS011;17476;48.458;7.928;2022-09-20T13:22:13;0.10;;;0.10;;
30729;SDS011;17476;48.458;7.928;2022-09-20T13:25:02;0.10;;;0.10;;
30729;SDS011;17476;48.458;7.928;2022-09-20T13:27:32;0.10;;;0.10;;
30729;SDS011;17476;48.458;7.928;2022-09-20T13:30:08;0.10;;;0.10;;
30729;SDS011;17476;48.458;7.928;2022-09-20T13:32:46;0.10;;;0.10;;
30729;SDS011;17476;48.458;7.928;2022-09-20T13:35:23;0.10;;;0.10;;
30729;SDS011;17476;48.458;7.928;2022-09-20T13:38:03;0.10;;;0.10;;
30729;SDS011;17476;48.458;7.928;2022-09-20T13:40:34;0.10;;;0.10;;
30729;SDS011;17476;48.458;7.928;2022-09-20T13:43:49;0.10;;;0.10;;
30729;SDS011;17476;48.458;7.928;2022-09-20T13:46:21;0.03;;;0.03;;
30729;SDS011;17476;48.458;7.928;2022-09-20T13:49:14;0.10;;;0.10;;
30729;SDS011;17476;48.458;7.928;2022-09-20T13:51:45;0.10;;;0.10;;
30729;SDS011;17476;48.458;7.928;2022-09-20T13:54:17;0.10;;;0.10;;
30729;SDS011;17476;48.458;7.928;2022-09-20T13:56:55;0.00;;;0.00;;
30729;SDS011;17476;48.458;7.928;2022-09-20T13:59:31;0.03;;;0.03;;
30729;SDS011;17476;48.458;7.928;2022-09-20T14:04:58;0.07;;;0.07;;
30729;SDS011;17476;48.458;7.928;2022-09-20T14:07:29;0.10;;;0.10;;
30729;SDS011;17476;48.458;7.928;2022-09-20T14:09:57;0.10;;;0.10;;
30729;SDS011;17476;48.458;7.928;2022-09-20T14:12:24;0.10;;;0.10;;
30729;SDS011;17476;48.458;7.928;2022-09-20T14:14:51;0.10;;;0.10;;
30729;SDS011;17476;48.458;7.928;2022-09-20T14:17:19;0.00;;;0.00;;
30729;SDS011;17476;48.458;7.928;2022-09-20T14:19:48;0.10;;;0.10;;
30729;SDS011;17476;48.458;7.928;2022-09-20T14:22:20;0.00;;;0.00;;
30729;SDS011;17476;48.458;7.928;2022-09-20T14:25:00;0.10;;;0.10;;
30729;SDS011;17476;48.458;7.928;2022-09-20T14:27:37;0.10;;;0.10;;
30729;SDS011;17476;48.458;7.928;2022-09-20T14:30:04;0.10;;;0.10;;
30729;SDS011;17476;48.458;7.928;2022-09-20T14:35:31;0.10;;;0.10;;
30729;SDS011;17476;48.458;7.928;2022-09-20T14:38:04;0.10;;;0.10;;
30729;SDS011;17476;48.458;7.928;2022-09-20T14:40:44;0.10;;;0.10;;
30729;SDS011;17476;48.458;7.928;2022-09-20T14:43:28;0.10;;;0.10;;
30729;SDS011;17476;48.458;7.928;2022-09-20T14:46:26;0.10;;;0.10;;
30729;SDS011;17476;48.458;7.928;2022-09-20T14:51:53;0.00;;;0.00;;
30729;SDS011;17476;48.458;7.928;2022-09-20T14:55:09;0.00;;;0.00;;
30729;SDS011;17476;48.458;7.928;2022-09-20T14:57:38;0.10;;;0.10;;
30729;SDS011;17476;48.458;7.928;2022-09-20T15:00:16;0.10;;;0.10;;
30729;SDS011;17476;48.458;7.928;2022-09-20T15:02:43;0.10;;;0.10;;
30729;SDS011;17476;48.458;7.928;2022-09-20T15:05:17;0.10;;;0.10;;
30729;SDS011;17476;48.458;7.928;2022-09-20T15:07:51;0.00;;;0.00;;
30729;SDS011;17476;48.458;7.928;2022-09-20T15:10:19;0.00;;;0.00;;
30729;SDS011;17476;48.458;7.928;2022-09-20T15:12:46;0.10;;;0.10;;
30729;SDS011;17476;48.458;7.928;2022-09-20T15:15:13;0.10;;;0.10;;
30729;SDS011;17476;48.458;7.928;2022-09-20T15:17:43;0.10;;;0.10;;
30729;SDS011;17476;48.458;7.928;2022-09-20T15:20:15;0.00;;;0.00;;
30729;SDS011;17476;48.458;7.928;2022-09-20T15:22:48;0.10;;;0.10;;
30729;SDS011;17476;48.458;7.928;2022-09-20T15:25:18;0.00;;;0.00;;
30729;SDS011;17476;48.458;7.928;2022-09-20T15:27:45;0.10;;;0.10;;
30729;SDS011;17476;48.458;7.928;2022-09-20T15:30:14;0.00;;;0.00;;
30729;SDS011;17476;48.458;7.928;2022-09-20T15:32:43;0.10;;;0.10;;
30729;SDS011;17476;48.458;7.928;2022-09-20T15:35:10;0.10;;;0.10;;
30729;SDS011;17476;48.458;7.928;2022-09-20T15:37:40;0.10;;;0.10;;
30729;SDS011;17476;48.458;7.928;2022-09-20T15:40:06;0.10;;;0.10;;
30729;SDS011;17476;48.458;7.928;2022-09-20T15:42:33;0.00;;;0.00;;
30729;SDS011;17476;48.458;7.928;2022-09-20T15:45:09;0.00;;;0.00;;
30729;SDS011;17476;48.458;7.928;2022-09-20T15:47:36;0.10;;;0.10;;
30729;SDS011;17476;48.458;7.928;2022-09-20T15:50:03;0.00;;;0.00;;
30729;SDS011;17476;48.458;7.928;2022-09-20T15:52:35;0.10;;;0.10;;
30729;SDS011;17476;48.458;7.928;2022-09-20T15:55:06;0.00;;;0.00;;
30729;SDS011;17476;48.458;7.928;2022-09-20T15:57:33;0.10;;;0.10;;
30729;SDS011;17476;48.458;7.928;2022-09-20T15:59:59;0.00;;;0.00;;
30729;SDS011;17476;48.458;7.928;2022-09-20T16:02:25;0.10;;;0.10;;
30729;SDS011;17476;48.458;7.928;2022-09-20T16:04:52;0.00;;;0.00;;
30729;SDS011;17476;48.458;7.928;2022-09-20T16:07:22;0.10;;;0.10;;
30729;SDS011;17476;48.458;7.928;2022-09-20T16:09:54;0.10;;;0.10;;
30729;SDS011;17476;48.458;7.928;2022-09-20T16:12:22;0.10;;;0.10;;
30729;SDS011;17476;48.458;7.928;2022-09-20T16:14:49;0.00;;;0.00;;
30729;SDS011;17476;48.458;7.928;2022-09-20T16:17:15;0.00;;;0.00;;
30729;SDS011;17476;48.458;7.928;2022-09-20T16:19:42;0.00;;;0.00;;
30729;SDS011;17476;48.458;7.928;2022-09-20T16:22:10;0.07;;;0.07;;
30729;SDS011;17476;48.458;7.928;2022-09-20T16:24:36;0.00;;;0.00;;
30729;SDS011;17476;48.458;7.928;2022-09-20T16:27:03;0.10;;;0.10;;
30729;SDS011;17476;48.458;7.928;2022-09-20T16:29:33;0.00;;;0.00;;
30729;SDS011;17476;48.458;7.928;2022-09-20T16:31:59;0.07;;;0.07;;
30729;SDS011;17476;48.458;7.928;2022-09-20T16:34:28;0.00;;;0.00;;
30729;SDS011;17476;48.458;7.928;2022-09-20T16:39:44;0.10;;;0.10;;
30729;SDS011;17476;48.458;7.928;2022-09-20T16:42:10;0.00;;;0.00;;
30729;SDS011;17476;48.458;7.928;2022-09-20T16:44:38;0.00;;;0.00;;
30729;SDS011;17476;48.458;7.928;2022-09-20T16:47:07;0.10;;;0.10;;
30729;SDS011;17476;48.458;7.928;2022-09-20T16:49:37;0.00;;;0.00;;
30729;SDS011;17476;48.458;7.928;2022-09-20T16:52:04;0.10;;;0.10;;
30729;SDS011;17476;48.458;7.928;2022-09-20T16:54:31;0.10;;;0.10;;
30729;SDS011;17476;48.458;7.928;2022-09-20T16:56:58;0.10;;;0.10;;
30729;SDS011;17476;48.458;7.928;2022-09-20T16:59:24;0.10;;;0.10;;
30729;SDS011;17476;48.458;7.928;2022-09-20T17:01:50;0.10;;;0.10;;
30729;SDS011;17476;48.458;7.928;2022-09-20T17:04:17;0.00;;;0.00;;
30729;SDS011;17476;48.458;7.928;2022-09-20T17:06:45;0.10;;;0.10;;
30729;SDS011;17476;48.458;7.928;2022-09-20T17:09:12;0.10;;;0.10;;
30729;SDS011;17476;48.458;7.928;2022-09-20T17:11:40;0.10;;;0.10;;
30729;SDS011;17476;48.458;7.928;2022-09-20T17:14:10;0.10;;;0.10;;
30729;SDS011;17476;48.458;7.928;2022-09-20T17:16:38;0.10;;;0.10;;
30729;SDS011;17476;48.458;7.928;2022-09-20T17:19:09;0.00;;;0.00;;
30729;SDS011;17476;48.458;7.928;2022-09-20T17:21:39;0.00;;;0.00;;
30729;SDS011;17476;48.458;7.928;2022-09-20T17:24:09;0.10;;;0.10;;
30729;SDS011;17476;48.458;7.928;2022-09-20T17:26:36;0.00;;;0.00;;
30729;SDS011;17476;48.458;7.928;2022-09-20T17:29:05;0.10;;;0.10;;
30729;SDS011;17476;48.458;7.928;2022-09-20T17:31:35;0.10;;;0.10;;
30729;SDS011;17476;48.458;7.928;2022-09-20T17:34:04;0.10;;;0.10;;
30729;SDS011;17476;48.458;7.928;2022-09-20T17:36:33;0.03;;;0.03;;
30729;SDS011;17476;48.458;7.928;2022-09-20T17:39:03;0.10;;;0.10;;
30729;SDS011;17476;48.458;7.928;2022-09-20T17:41:31;0.00;;;0.00;;
30729;SDS011;17476;48.458;7.928;2022-09-20T17:44:01;0.10;;;0.10;;
30729;SDS011;17476;48.458;7.928;2022-09-20T17:46:32;0.10;;;0.10;;
30729;SDS011;17476;48.458;7.928;2022-09-20T17:49:03;0.10;;;0.10;;
30729;SDS011;17476;48.458;7.928;2022-09-20T17:51:33;0.10;;;0.10;;
30729;SDS011;17476;48.458;7.928;2022-09-20T17:54:06;0.10;;;0.10;;
30729;SDS011;17476;48.458;7.928;2022-09-20T17:56:36;0.10;;;0.10;;
30729;SDS011;17476;48.458;7.928;2022-09-20T17:59:03;0.00;;;0.00;;
30729;SDS011;17476;48.458;7.928;2022-09-20T18:01:31;0.10;;;0.10;;
30729;SDS011;17476;48.458;7.928;2022-09-20T18:03:59;0.10;;;0.10;;
30729;SDS011;17476;48.458;7.928;2022-09-20T18:06:28;0.10;;;0.10;;
30729;SDS011;17476;48.458;7.928;2022-09-20T18:08:58;0.00;;;0.00;;
30729;SDS011;17476;48.458;7.928;2022-09-20T18:11:28;0.10;;;0.10;;
30729;SDS011;17476;48.458;7.928;2022-09-20T18:13:57;0.10;;;0.10;;
30729;SDS011;17476;48.458;7.928;2022-09-20T18:16:25;0.03;;;0.03;;
30729;SDS011;17476;48.458;7.928;2022-09-20T18:18:51;0.10;;;0.10;;
30729;SDS011;17476;48.458;7.928;2022-09-20T18:23:48;0.10;;;0.10;;
30729;SDS011;17476;48.458;7.928;2022-09-20T18:28:49;0.10;;;0.10;;
30729;SDS011;17476;48.458;7.928;2022-09-20T18:34:19;0.10;;;0.10;;
30729;SDS011;17476;48.458;7.928;2022-09-20T18:36:54;0.07;;;0.07;;
30729;SDS011;17476;48.458;7.928;2022-09-20T18:39:31;0.00;;;0.00;;
30729;SDS011;17476;48.458;7.928;2022-09-20T18:41:58;0.10;;;0.10;;
30729;SDS011;17476;48.458;7.928;2022-09-20T18:44:26;0.10;;;0.10;;
30729;SDS011;17476;48.458;7.928;2022-09-20T18:46:57;0.10;;;0.10;;
30729;SDS011;17476;48.458;7.928;2022-09-20T18:49:25;0.10;;;0.10;;
30729;SDS011;17476;48.458;7.928;2022-09-20T18:51:51;0.10;;;0.10;;
30729;SDS011;17476;48.458;7.928;2022-09-20T18:54:17;0.10;;;0.10;;
30729;SDS011;17476;48.458;7.928;2022-09-20T18:56:43;0.10;;;0.10;;
30729;SDS011;17476;48.458;7.928;2022-09-20T19:26:29;0.10;;;0.10;;
30729;SDS011;17476;48.458;7.928;2022-09-20T19:29:02;0.20;;;0.20;;
30729;SDS011;17476;48.458;7.928;2022-09-20T19:31:40;0.20;;;0.20;;
30729;SDS011;17476;48.458;7.928;2022-09-20T19:34:10;0.13;;;0.13;;
30729;SDS011;17476;48.458;7.928;2022-09-20T19:50:48;0.10;;;0.10;;
30729;SDS011;17476;48.458;7.928;2022-09-20T19:53:18;0.10;;;0.10;;
30729;SDS011;17476;48.458;7.928;2022-09-20T19:55:47;0.10;;;0.10;;
30729;SDS011;17476;48.458;7.928;2022-09-20T19:58:18;0.10;;;0.10;;
30729;SDS011;17476;48.458;7.928;2022-09-20T20:00:45;0.10;;;0.10;;
30729;SDS011;17476;48.458;7.928;2022-09-20T20:03:12;0.10;;;0.10;;
30729;SDS011;17476;48.458;7.928;2022-09-20T20:05:41;0.10;;;0.10;;
30729;SDS011;17476;48.458;7.928;2022-09-20T20:08:44;0.17;;;0.17;;
30729;SDS011;17476;48.458;7.928;2022-09-20T20:11:44;0.13;;;0.13;;
30729;SDS011;17476;48.458;7.928;2022-09-20T20:20:09;0.20;;;0.20;;
30729;SDS011;17476;48.458;7.928;2022-09-20T20:28:29;0.20;;;0.20;;
30729;SDS011;17476;48.458;7.928;2022-09-20T20:30:57;0.20;;;0.20;;
30729;SDS011;17476;48.458;7.928;2022-09-20T20:33:27;0.23;;;0.23;;
30729;SDS011;17476;48.458;7.928;2022-09-20T20:35:58;0.10;;;0.10;;
30729;SDS011;17476;48.458;7.928;2022-09-20T20:38:25;0.20;;;0.20;;
30729;SDS011;17476;48.458;7.928;2022-09-20T20:43:32;0.20;;;0.20;;
30729;SDS011;17476;48.458;7.928;2022-09-20T20:46:01;0.10;;;0.10;;
30729;SDS011;17476;48.458;7.928;2022-09-20T20:48:28;0.20;;;0.20;;
30729;SDS011;17476;48.458;7.928;2022-09-20T20:50:58;0.03;;;0.03;;
30729;SDS011;17476;48.458;7.928;2022-09-20T20:53:30;0.13;;;0.13;;
30729;SDS011;17476;48.458;7.928;2022-09-20T20:56:08;0.10;;;0.10;;
30729;SDS011;17476;48.458;7.928;2022-09-20T20:58:37;0.10;;;0.10;;
30729;SDS011;17476;48.458;7.928;2022-09-20T21:01:15;0.17;;;0.17;;
30729;SDS011;17476;48.458;7.928;2022-09-20T21:03:55;0.10;;;0.10;;
30729;SDS011;17476;48.458;7.928;2022-09-20T21:06:22;0.03;;;0.03;;
30729;SDS011;17476;48.458;7.928;2022-09-20T21:08:51;0.10;;;0.10;;
30729;SDS011;17476;48.458;7.928;2022-09-20T21:11:20;0.07;;;0.07;;
30729;SDS011;17476;48.458;7.928;2022-09-20T21:13:48;0.10;;;0.10;;
30729;SDS011;17476;48.458;7.928;2022-09-20T21:16:20;0.10;;;0.10;;
30729;SDS011;17476;48.458;7.928;2022-09-20T21:18:48;0.10;;;0.10;;
30729;SDS011;17476;48.458;7.928;2022-09-20T21:24:07;0.10;;;0.10;;
30729;SDS011;17476;48.458;7.928;2022-09-20T21:26:36;0.20;;;0.20;;
30729;SDS011;17476;48.458;7.928;2022-09-20T21:29:04;0.00;;;0.00;;
30729;SDS011;17476;48.458;7.928;2022-09-20T21:31:39;0.10;;;0.10;;
30729;SDS011;17476;48.458;7.928;2022-09-20T21:34:07;0.10;;;0.10;;
30729;SDS011;17476;48.458;7.928;2022-09-20T21:36:35;0.10;;;0.10;;
30729;SDS011;17476;48.458;7.928;2022-09-20T21:39:05;0.10;;;0.10;;
30729;SDS011;17476;48.458;7.928;2022-09-20T21:41:32;0.10;;;0.10;;
30729;SDS011;17476;48.458;7.928;2022-09-20T21:44:01;0.10;;;0.10;;
30729;SDS011;17476;48.458;7.928;2022-09-20T21:46:29;0.20;;;0.20;;
30729;SDS011;17476;48.458;7.928;2022-09-20T21:49:00;0.10;;;0.10;;
30729;SDS011;17476;48.458;7.928;2022-09-20T21:51:28;0.10;;;0.10;;
30729;SDS011;17476;48.458;7.928;2022-09-20T21:53:56;0.07;;;0.07;;
30729;SDS011;17476;48.458;7.928;2022-09-20T21:56:24;0.10;;;0.10;;
30729;SDS011;17476;48.458;7.928;2022-09-20T21:58:53;0.00;;;0.00;;
30729;SDS011;17476;48.458;7.928;2022-09-20T22:01:23;0.20;;;0.20;;
30729;SDS011;17476;48.458;7.928;2022-09-20T22:03:54;0.10;;;0.10;;
30729;SDS011;17476;48.458;7.928;2022-09-20T22:06:28;0.10;;;0.10;;
30729;SDS011;17476;48.458;7.928;2022-09-20T22:08:57;0.10;;;0.10;;
30729;SDS011;17476;48.458;7.928;2022-09-20T22:11:27;0.10;;;0.10;;